Terminal Aerodrome Forecast
Issued by NWS Tulsa, OK

Home | Current Version | Previous Version | Text Only | Print | Product List | Glossary On
Versions: 1 2 3 4 5 6 7 8 9 10 11 12 13
197
FTUS44 KTSA 100530
TAFFSM
TAF
KFSM 100530Z 1006/1106 34011G18KT P6SM SKC
     FM100900 30004KT P6SM SCT250
     FM101600 23008KT P6SM SCT250
     FM101900 23012G18KT P6SM SCT250
     FM110000 22004KT P6SM SCT250=

USA.gov is the U.S. government's official web portal to all federal, state and local government web resources and services.